createdAt,value
2022-11-17T05:06:52.268Z,3.88
2022-11-17T05:08:53.908Z,3.88
2022-11-17T05:12:56.993Z,3.89
2022-11-17T05:14:58.168Z,3.88
2022-11-17T05:17:02.219Z,3.88
2022-11-17T05:19:01.065Z,3.88
2022-11-17T05:23:06.653Z,3.88
2022-11-17T05:25:05.369Z,3.88
2022-11-17T05:27:07.063Z,3.88
2022-11-17T05:29:08.650Z,3.88
2022-11-17T05:31:09.927Z,3.88
2022-11-17T05:33:11.495Z,3.88
2022-11-17T05:35:12.782Z,3.88
2022-11-17T05:39:16.065Z,3.88
2022-11-17T05:41:17.815Z,3.88
2022-11-17T05:43:18.751Z,3.88
2022-11-17T05:45:19.974Z,3.88
2022-11-17T05:49:23.296Z,3.88
2022-11-17T05:51:25.077Z,3.88
2022-11-17T05:53:26.363Z,3.88
2022-11-17T05:55:28.162Z,3.88
2022-11-17T05:57:29.508Z,3.88
2022-11-17T05:59:31.313Z,3.88
2022-11-17T06:01:32.500Z,3.88
2022-11-17T06:05:34.710Z,3.88
2022-11-17T06:07:35.770Z,3.88
2022-11-17T06:11:38.335Z,3.88
2022-11-17T06:13:40.224Z,3.88
2022-11-17T06:15:41.935Z,3.88
2022-11-17T06:17:43.582Z,3.88
2022-11-17T06:22:10.395Z,3.88
2022-11-17T06:23:47.944Z,3.88
2022-11-17T06:25:49.481Z,3.88
2022-11-17T06:27:50.806Z,3.88
2022-11-17T06:31:53.719Z,3.88
2022-11-17T06:33:55.473Z,3.88
2022-11-17T06:35:56.636Z,3.88
2022-11-17T06:37:57.947Z,3.88
2022-11-17T06:39:59.846Z,3.88
2022-11-17T06:42:01.750Z,3.88
2022-11-17T06:44:02.846Z,3.87
2022-11-17T06:48:05.701Z,3.88
2022-11-17T06:48:49.519Z,3.88
2022-11-17T06:50:51.362Z,3.88
2022-11-17T06:52:53.086Z,3.88
2022-11-17T06:54:54.910Z,3.88
2022-11-17T06:58:58.181Z,3.87
2022-11-17T07:01:00.005Z,3.88
2022-11-17T07:03:01.064Z,3.87
2022-11-17T07:05:02.035Z,3.87
2022-11-17T07:07:03.195Z,3.87
2022-11-17T07:09:04.201Z,3.87
2022-11-17T07:11:05.140Z,3.87
2022-11-17T07:15:08.128Z,3.87
2022-11-17T07:17:09.831Z,3.88
2022-11-17T07:19:10.978Z,3.87
2022-11-17T07:21:12.288Z,3.87
2022-11-17T07:25:18.361Z,3.87
2022-11-17T07:27:16.598Z,3.87
2022-11-17T07:31:19.204Z,3.87
2022-11-17T07:33:20.946Z,3.87
2022-11-17T07:35:22.794Z,3.87
2022-11-17T07:37:24.531Z,3.87
2022-11-17T07:41:26.787Z,3.87
2022-11-17T07:43:28.804Z,3.87
2022-11-17T07:45:32.201Z,3.87
2022-11-17T07:47:31.262Z,3.87
2022-11-17T07:49:33.090Z,3.87
2022-11-17T07:51:34.584Z,3.87
2022-11-17T07:53:45.366Z,3.91
2022-11-17T07:55:37.935Z,3.92
2022-11-17T07:57:39.675Z,3.89
2022-11-17T07:59:40.774Z,3.88
2022-11-17T08:01:42.407Z,3.88
2022-11-17T08:03:44.266Z,3.88
2022-11-17T08:07:46.289Z,3.88
2022-11-17T08:09:47.308Z,3.88
2022-11-17T08:13:50.228Z,3.88
2022-11-17T08:15:51.859Z,3.88
2022-11-17T08:17:53.242Z,3.88
2022-11-17T08:19:54.479Z,3.88
2022-11-17T08:23:57.709Z,3.88
2022-11-17T08:25:59.193Z,3.88
2022-11-17T08:28:10.049Z,3.88
2022-11-17T08:30:02.729Z,3.88
2022-11-17T08:32:04.007Z,3.88
2022-11-17T08:34:05.842Z,3.88
2022-11-17T08:36:06.798Z,3.88
2022-11-17T08:40:09.461Z,3.89
2022-11-17T08:42:10.544Z,3.9
2022-11-17T08:44:11.764Z,3.88
2022-11-17T08:46:13.052Z,3.88
2022-11-17T08:50:15.777Z,3.89
2022-11-17T08:52:17.177Z,3.89
2022-11-17T08:54:18.849Z,3.89
2022-11-17T08:56:19.858Z,3.88
2022-11-17T08:58:21.578Z,3.89
2022-11-17T09:00:23.194Z,3.89
2022-11-17T09:02:24.871Z,3.88
2022-11-17T09:06:27.331Z,3.89
2022-11-17T09:08:44.297Z,3.88
2022-11-17T09:12:31.946Z,3.88
2022-11-17T09:14:32.869Z,3.88
2022-11-17T09:16:34.711Z,3.89
2022-11-17T09:18:36.203Z,3.89
2022-11-17T09:22:38.630Z,3.89
2022-11-17T09:24:40.180Z,3.89
2022-11-17T09:26:41.595Z,3.89
2022-11-17T09:28:42.644Z,3.9
2022-11-17T09:30:44.472Z,3.92
2022-11-17T09:32:46.013Z,3.93
2022-11-17T09:34:47.545Z,3.92
2022-11-17T09:38:49.896Z,3.94
2022-11-17T09:40:51.310Z,3.91
2022-11-17T09:42:52.288Z,3.91
2022-11-17T09:44:53.869Z,3.9
2022-11-17T09:48:56.067Z,3.9
2022-11-17T09:50:57.696Z,3.91
2022-11-17T09:52:59.327Z,3.9
2022-11-17T09:55:01.113Z,3.9
2022-11-17T09:57:02.889Z,3.9
2022-11-17T09:59:03.960Z,3.9
2022-11-17T10:01:05.438Z,3.9
2022-11-17T10:05:07.785Z,3.9
2022-11-17T10:07:09.205Z,3.9
2022-11-17T10:09:10.342Z,3.9
2022-11-17T10:11:11.945Z,3.9
2022-11-17T10:13:13.618Z,3.9
2022-11-17T10:15:15.368Z,3.9
2022-11-17T10:17:17.183Z,3.9
2022-11-17T10:21:19.952Z,3.9
2022-11-17T10:23:21.561Z,3.9
2022-11-17T10:25:23.050Z,3.9
2022-11-17T10:27:23.954Z,3.9
2022-11-17T10:31:26.646Z,3.9
2022-11-17T10:33:27.710Z,3.91
2022-11-17T10:37:30.781Z,3.9
2022-11-17T10:39:32.630Z,3.9
2022-11-17T10:41:34.036Z,3.9
2022-11-17T10:43:36.114Z,3.9
2022-11-17T10:47:38.207Z,3.9
2022-11-17T10:49:39.737Z,3.9
2022-11-17T10:51:41.183Z,3.9
2022-11-17T10:53:45.956Z,3.9
2022-11-17T10:55:43.975Z,3.89
2022-11-17T10:57:45.563Z,3.9
2022-11-17T10:59:48.684Z,3.9
2022-11-17T11:03:48.610Z,3.89
2022-11-17T11:05:49.697Z,3.9
2022-11-17T11:07:51.229Z,3.9
2022-11-17T11:09:52.550Z,3.9
2022-11-17T11:13:55.359Z,3.9
2022-11-17T11:15:56.928Z,3.9
2022-11-17T11:17:58.104Z,3.89
2022-11-17T11:19:59.622Z,3.89
2022-11-17T11:22:00.927Z,3.89
2022-11-17T11:24:02.445Z,3.89
2022-11-17T11:26:03.794Z,3.89
2022-11-17T11:30:06.009Z,3.89
2022-11-17T11:32:07.195Z,3.89
2022-11-17T11:36:10.304Z,3.89
2022-11-17T11:38:11.272Z,3.89
2022-11-17T11:40:12.394Z,3.89
2022-11-17T11:42:13.637Z,3.89
2022-11-17T11:46:16.081Z,3.89
2022-11-17T11:48:17.600Z,3.89
2022-11-17T11:50:18.727Z,3.89
2022-11-17T11:52:20.430Z,3.89
2022-11-17T11:56:23.537Z,3.88
2022-11-17T11:58:25.444Z,3.88
2022-11-17T12:02:28.720Z,3.89
2022-11-17T12:04:29.812Z,3.88
2022-11-17T12:06:30.901Z,3.89
2022-11-17T12:08:32.476Z,3.88
2022-11-17T12:12:35.147Z,3.88
2022-11-17T12:14:36.197Z,3.89
2022-11-17T12:16:37.143Z,3.89
2022-11-17T12:18:38.455Z,3.89
2022-11-17T12:20:40.301Z,3.89
2022-11-17T12:22:42.084Z,3.89
2022-11-17T12:24:43.593Z,3.9
2022-11-17T12:28:46.480Z,3.9
2022-11-17T12:30:48.302Z,3.9
2022-11-17T12:32:49.314Z,3.91
2022-11-17T12:34:50.482Z,3.91
2022-11-17T12:36:51.793Z,3.91
2022-11-17T12:38:53.178Z,3.92
2022-11-17T12:40:54.956Z,3.94
2022-11-17T12:44:58.911Z,3.95
2022-11-17T12:47:00.531Z,3.95
2022-11-17T12:49:01.511Z,3.95
2022-11-17T12:51:04.938Z,3.93
2022-11-17T12:55:05.077Z,3.92
2022-11-17T12:57:06.270Z,3.92
2022-11-17T13:01:09.920Z,3.92
2022-11-17T13:03:10.958Z,3.93
2022-11-17T13:05:12.680Z,3.93
2022-11-17T13:07:13.787Z,3.93
2022-11-17T13:11:16.229Z,3.92
2022-11-17T13:13:17.702Z,3.93
2022-11-17T13:15:19.052Z,3.93
2022-11-17T13:17:20.250Z,3.94
2022-11-17T13:19:21.828Z,3.94
2022-11-17T13:21:23.317Z,3.96
2022-11-17T13:23:24.655Z,3.97
2022-11-17T13:27:28.061Z,3.97
2022-11-17T13:29:29.102Z,3.98
2022-11-17T13:31:30.427Z,3.98
2022-11-17T13:33:35.520Z,3.98
2022-11-17T13:34:16.225Z,3.97
2022-11-17T13:36:17.168Z,3.95
2022-11-17T13:38:18.713Z,3.95
2022-11-17T13:40:20.371Z,3.94
2022-11-17T13:42:21.678Z,3.94
2022-11-17T13:44:22.955Z,3.94
2022-11-17T13:48:26.007Z,3.94
2022-11-17T13:50:27.313Z,3.95
2022-11-17T13:54:30.540Z,3.94
2022-11-17T13:56:32.445Z,3.95
2022-11-17T13:58:33.589Z,3.94
2022-11-17T14:00:34.842Z,3.94
2022-11-17T14:04:37.937Z,3.94
2022-11-17T14:06:39.307Z,3.94
2022-11-17T14:08:40.258Z,3.94
2022-11-17T14:10:41.382Z,3.94
2022-11-17T14:12:42.816Z,3.94
2022-11-17T14:14:44.424Z,3.94
2022-11-17T14:16:45.465Z,3.94
2022-11-17T14:20:48.383Z,3.94
2022-11-17T14:22:50.243Z,3.94
2022-11-17T14:24:51.324Z,3.94
2022-11-17T14:26:52.440Z,3.94
2022-11-17T14:30:55.765Z,3.94
2022-11-17T14:33:01.574Z,3.94
2022-11-17T14:34:58.244Z,3.94
2022-11-17T14:36:59.796Z,3.93
2022-11-17T14:39:01.738Z,3.94
2022-11-17T14:41:03.603Z,3.94
2022-11-17T14:43:05.520Z,3.93
2022-11-17T14:47:07.463Z,3.93
2022-11-17T14:49:08.793Z,3.93
2022-11-17T14:51:10.068Z,3.93
2022-11-17T14:53:11.397Z,3.93
2022-11-17T14:55:12.736Z,3.93
2022-11-17T14:57:13.994Z,3.93
2022-11-17T14:59:15.936Z,3.93
2022-11-17T15:03:18.495Z,3.93
2022-11-17T15:05:19.654Z,3.93
2022-11-17T15:07:21.355Z,3.93
2022-11-17T15:09:22.559Z,3.93
2022-11-17T15:13:25.279Z,3.93
2022-11-17T15:15:26.365Z,3.93
2022-11-17T15:19:28.922Z,3.93
2022-11-17T15:21:30.392Z,3.93
2022-11-17T15:23:32.270Z,3.92
2022-11-17T15:25:33.582Z,3.92
2022-11-17T15:29:36.118Z,3.92
2022-11-17T15:31:37.764Z,3.92
2022-11-17T15:33:38.710Z,3.92
2022-11-17T15:35:39.907Z,3.92
2022-11-17T15:37:41.608Z,3.92
2022-11-17T15:39:42.946Z,3.92
2022-11-17T15:41:44.019Z,3.92
2022-11-17T15:45:47.706Z,3.92
2022-11-17T15:47:49.137Z,3.92
2022-11-17T15:49:50.723Z,3.92
2022-11-17T15:51:51.733Z,3.92
2022-11-17T15:55:54.619Z,3.92
2022-11-17T15:57:55.916Z,3.92
2022-11-17T16:01:59.451Z,3.92
2022-11-17T16:04:01.165Z,3.92
2022-11-17T16:06:02.581Z,3.92
2022-11-17T16:08:04.211Z,3.92
2022-11-17T16:12:07.722Z,3.92
2022-11-17T16:14:09.332Z,3.92
2022-11-17T16:16:10.544Z,3.92
2022-11-17T16:18:11.533Z,3.92
2022-11-17T16:20:12.533Z,3.92
2022-11-17T16:22:13.895Z,3.92
2022-11-17T16:24:15.821Z,3.92
2022-11-17T16:28:18.362Z,3.92
2022-11-17T16:30:19.324Z,3.92
2022-11-17T16:32:20.908Z,3.92
2022-11-17T16:34:22.191Z,3.91
2022-11-17T16:36:23.205Z,3.92
2022-11-17T16:38:24.888Z,3.91
2022-11-17T16:40:26.726Z,3.92
2022-11-17T16:42:28.235Z,3.91
2022-11-17T16:44:29.591Z,3.91
2022-11-17T16:46:31.293Z,3.92
2022-11-17T16:48:32.383Z,3.91
2022-11-17T16:50:33.931Z,3.91
2022-11-17T16:54:35.911Z,3.92
2022-11-17T16:56:37.719Z,3.92
2022-11-17T17:00:40.734Z,3.91
2022-11-17T17:02:42.333Z,3.91
2022-11-17T17:04:43.402Z,3.91
2022-11-17T17:06:44.819Z,3.91
2022-11-17T17:10:47.553Z,3.91
2022-11-17T17:12:48.520Z,3.91
2022-11-17T17:14:50.443Z,3.91
2022-11-17T17:16:51.846Z,3.91
2022-11-17T17:18:53.483Z,3.91
2022-11-17T17:20:55.307Z,3.91
2022-11-17T17:23:00.299Z,3.91
2022-11-17T17:26:59.863Z,3.91
2022-11-17T17:29:01.668Z,3.91
2022-11-17T17:31:02.670Z,3.9
2022-11-17T17:33:04.044Z,3.91
2022-11-17T17:37:07.749Z,3.9
2022-11-17T17:39:08.944Z,3.9
2022-11-17T17:41:10.417Z,3.91
2022-11-17T17:43:11.593Z,3.9
2022-11-17T17:45:13.505Z,3.91
2022-11-17T17:47:15.247Z,3.9
2022-11-17T17:49:16.637Z,3.9
2022-11-17T17:53:18.731Z,3.9
2022-11-17T17:55:20.526Z,3.9
2022-11-17T17:57:22.240Z,3.9
2022-11-17T17:59:23.753Z,3.9
2022-11-17T18:01:24.820Z,3.9
2022-11-17T18:03:26.678Z,3.9
2022-11-17T18:05:28.394Z,3.9
2022-11-17T18:09:31.191Z,3.9
2022-11-17T18:11:32.323Z,3.9
2022-11-17T18:13:33.673Z,3.9
2022-11-17T18:15:35.527Z,3.9
2022-11-17T18:19:38.376Z,3.9
2022-11-17T18:21:40.119Z,3.9
2022-11-17T18:25:42.230Z,3.9
2022-11-17T18:27:43.966Z,3.9
2022-11-17T18:29:45.526Z,3.9
2022-11-17T18:31:46.529Z,3.9
2022-11-17T18:35:49.875Z,3.9
2022-11-17T18:37:51.428Z,3.9
2022-11-17T18:39:53.084Z,3.9
2022-11-17T18:41:54.785Z,3.9
2022-11-17T18:43:56.207Z,3.9
2022-11-17T18:45:57.881Z,3.9
2022-11-17T18:47:59.270Z,3.9
2022-11-17T18:52:02.748Z,3.9
2022-11-17T18:54:03.963Z,3.9
2022-11-17T18:56:05.580Z,3.9
2022-11-17T18:58:07.438Z,3.9
2022-11-17T19:02:11.134Z,3.9
2022-11-17T19:04:12.532Z,3.89
2022-11-17T19:08:16.082Z,3.9
2022-11-17T19:10:17.182Z,3.89
2022-11-17T19:12:18.597Z,3.9
2022-11-17T19:14:20.094Z,3.89
2022-11-17T19:18:23.463Z,3.9
2022-11-17T19:20:24.895Z,3.89
2022-11-17T19:22:26.199Z,3.89
2022-11-17T19:24:27.358Z,3.89
2022-11-17T19:26:28.859Z,3.89
2022-11-17T19:28:30.754Z,3.89
2022-11-17T19:30:32.091Z,3.89
2022-11-17T19:34:35.059Z,3.89
2022-11-17T19:36:36.091Z,3.89
2022-11-17T19:38:37.322Z,3.89
2022-11-17T19:40:39.024Z,3.89
2022-11-17T19:44:41.837Z,3.89
2022-11-17T19:46:43.016Z,3.88
2022-11-17T19:48:44.586Z,3.89
2022-11-17T19:50:48.508Z,3.89
2022-11-17T19:52:48.399Z,3.88
2022-11-17T19:54:50.237Z,3.89
2022-11-17T19:56:52.045Z,3.89
2022-11-17T20:00:55.115Z,3.89
2022-11-17T20:02:56.573Z,3.89
2022-11-17T20:06:59.169Z,3.88
2022-11-17T20:09:00.355Z,3.88
2022-11-17T20:11:01.598Z,3.88
2022-11-17T20:13:02.940Z,3.88
2022-11-17T20:17:05.480Z,3.88
2022-11-17T20:19:06.673Z,3.88
2022-11-17T20:19:50.575Z,3.88
2022-11-17T20:21:51.881Z,3.88
2022-11-17T20:23:53.738Z,3.88
2022-11-17T20:27:57.214Z,3.88
2022-11-17T20:29:58.560Z,3.88
2022-11-17T20:31:59.678Z,3.88
2022-11-17T20:34:01.608Z,3.88
2022-11-17T20:38:04.757Z,3.88
2022-11-17T20:40:06.508Z,3.88
2022-11-17T20:42:07.665Z,3.88
2022-11-17T20:44:09.485Z,3.88
2022-11-17T20:46:10.828Z,3.88
2022-11-17T20:48:12.619Z,3.88
2022-11-17T20:50:14.332Z,3.88
2022-11-17T20:54:16.502Z,3.88
2022-11-17T20:56:18.067Z,3.88
2022-11-17T20:58:19.563Z,3.88
2022-11-17T21:00:21.293Z,3.88
2022-11-17T21:02:22.331Z,3.88
2022-11-17T21:04:23.504Z,3.88
2022-11-17T21:06:25.402Z,3.88
2022-11-17T21:10:28.426Z,3.88
2022-11-17T21:12:29.671Z,3.88
2022-11-17T21:14:31.056Z,3.88
2022-11-17T21:16:32.468Z,3.88
2022-11-17T21:20:35.794Z,3.87
2022-11-17T21:22:37.473Z,3.88
2022-11-17T21:24:39.371Z,3.88
2022-11-17T21:26:40.479Z,3.87
2022-11-17T21:28:42.022Z,3.88
2022-11-17T21:30:43.049Z,3.87
2022-11-17T21:32:44.406Z,3.87
2022-11-17T21:36:48.083Z,3.87
2022-11-17T21:38:49.323Z,3.87
2022-11-17T21:40:50.956Z,3.87
2022-11-17T21:42:52.059Z,3.87
2022-11-17T21:44:53.635Z,3.87
2022-11-17T21:46:55.292Z,3.87
2022-11-17T21:48:56.709Z,3.87
2022-11-17T21:52:59.727Z,3.87
2022-11-17T21:57:02.610Z,3.87
2022-11-17T21:59:03.584Z,3.87
2022-11-17T22:01:04.968Z,3.87
2022-11-17T22:03:05.913Z,3.87
2022-11-17T22:05:06.891Z,3.87
2022-11-17T22:09:09.964Z,3.87
2022-11-17T22:11:11.507Z,3.87
2022-11-17T22:13:13.297Z,3.87
2022-11-17T22:15:14.735Z,3.87
2022-11-17T22:17:16.063Z,3.87
2022-11-17T22:19:17.401Z,3.87
2022-11-17T22:21:19.107Z,3.87
2022-11-17T22:25:43.429Z,3.86
2022-11-17T22:27:23.913Z,3.86
2022-11-17T22:29:25.818Z,3.86
2022-11-17T22:31:27.638Z,3.86
2022-11-17T22:35:29.800Z,3.86
2022-11-17T22:37:31.196Z,3.86
2022-11-17T22:39:32.317Z,3.86
2022-11-17T22:41:33.335Z,3.86
2022-11-17T22:43:35.154Z,3.86
2022-11-17T22:45:36.817Z,3.86
2022-11-17T22:47:37.880Z,3.86
2022-11-17T22:51:40.763Z,3.86
2022-11-17T22:53:41.743Z,3.86
2022-11-17T22:55:43.268Z,3.86
2022-11-17T22:57:44.480Z,3.86
2022-11-17T22:59:45.684Z,3.86
2022-11-17T23:01:47.383Z,3.86
2022-11-17T23:03:48.512Z,3.86
2022-11-17T23:07:51.316Z,3.86
2022-11-17T23:09:53.052Z,3.86
2022-11-17T23:11:54.775Z,3.86
2022-11-17T23:13:56.494Z,3.86
2022-11-17T23:17:59.795Z,3.86
2022-11-17T23:20:01.254Z,3.86
2022-11-17T23:24:04.085Z,3.86
2022-11-17T23:26:05.144Z,3.86
2022-11-17T23:28:06.725Z,3.86
2022-11-17T23:30:08.102Z,3.86
2022-11-17T23:34:10.775Z,3.86
2022-11-17T23:36:12.003Z,3.86
2022-11-17T23:38:13.099Z,3.86
2022-11-17T23:40:14.598Z,3.86
2022-11-17T23:42:16.205Z,3.86
2022-11-17T23:44:17.482Z,3.86
2022-11-17T23:46:18.877Z,3.86
2022-11-17T23:50:22.167Z,3.86
2022-11-17T23:52:23.399Z,3.85
2022-11-17T23:54:24.438Z,3.86
2022-11-17T23:56:25.581Z,3.86
